SAME/MDZ METAR and TAF weather

Enter ICAO airport designator
Station Type Date Time Source
SAME METAR 2021/05/11 23:00 UTC NOAA

SAME 112300Z 00000KT CAVOK 14/06 Q1020


Station Type Date Time Source
SAME Decoded METAR 2021/05/11 23:00 UTC NOAA

Mendoza Aerodrome, Argentina (SAME) 32-50S 068-47W 704M
May 11, 2021 - 07:00 PM EDT / 2021.05.11 2300 UTC
Wind: Calm:0
Visibility: greater than 7 mile(s):0
Temperature: 57 F (14 C)
Dew Point: 42 F (6 C)
Relative Humidity: 58%
Pressure (altimeter): 30.12 in. Hg (1020 hPa)
ob: SAME 112300Z 00000KT CAVOK 14/06 Q1020
cycle: 23

Station Type Date Time Source
SAME TAF 2021/05/11 18:03 UTC NOAA

TAF TAF SAME 111700Z 1118/1218 05005KT CAVOK TX19/1120Z TN06/1210Z

Example: see airport list